SAV38P YPDN-YSHR
Flight info
| Callsign | SAV38P |
|---|---|
| Flight time | N/A |
| Altitude | 37000 |
| Route | RUSKA7 RUSKA DCT NOKUN J138 TL W258 JEMMA DCT |
| Aircraft | B78X/H-SDE1E2E3FGHIJ2J3J4J5M1RWXY/LB1D1 |
Departure
| Time | 2026-05-04 12:50 |
|---|---|
| Airport | Darwin International Airport / RAAF Darwin (YPDN) |
Arrival
| Time | N/A |
|---|---|
| Airport | Shute Harbour/Whitsunday Airport (YSHR) |
| Time | Latitude | Longitude | Altitude | Speed | Heading |
|---|---|---|---|---|---|
| 2026-05-04 12:27 | -12.40850 | 130.87621 | 98 ft | 0 kts | 19° |
| 2026-05-04 12:39 | -12.40854 | 130.87620 | 103 ft | 1 kts | 24° |
| 2026-05-04 12:40 | -12.40862 | 130.87617 | 103 ft | 2 kts | 31° |
| 2026-05-04 12:40 | -12.40875 | 130.87607 | 98 ft | 2 kts | 52° |
| 2026-05-04 12:40 | -12.40884 | 130.87593 | 97 ft | 2 kts | 75° |
| 2026-05-04 12:40 | -12.40889 | 130.87577 | 98 ft | 2 kts | 84° |
| 2026-05-04 12:41 | -12.40889 | 130.87560 | 97 ft | 2 kts | 103° |
| 2026-05-04 12:41 | -12.40884 | 130.87545 | 96 ft | 0 kts | 133° |
| 2026-05-04 12:44 | -12.40891 | 130.87552 | 97 ft | 2 kts | 133° |
| 2026-05-04 12:44 | -12.40898 | 130.87560 | 99 ft | 2 kts | 134° |
| 2026-05-04 12:44 | -12.40909 | 130.87571 | 100 ft | 3 kts | 134° |
| 2026-05-04 12:45 | -12.40929 | 130.87586 | 102 ft | 5 kts | 147° |
| 2026-05-04 12:45 | -12.40964 | 130.87598 | 103 ft | 6 kts | 169° |
| 2026-05-04 12:45 | -12.40992 | 130.87597 | 103 ft | 3 kts | 186° |
| 2026-05-04 12:45 | -12.41000 | 130.87595 | 103 ft | 0 kts | 189° |
| 2026-05-04 12:46 | -12.41001 | 130.87595 | 103 ft | 1 kts | 190° |
| 2026-05-04 12:46 | -12.41036 | 130.87584 | 105 ft | 10 kts | 198° |
| 2026-05-04 12:46 | -12.41132 | 130.87553 | 108 ft | 19 kts | 198° |
| 2026-05-04 12:46 | -12.41297 | 130.87499 | 109 ft | 31 kts | 198° |
| 2026-05-04 12:47 | -12.41523 | 130.87464 | 111 ft | 29 kts | 153° |
| 2026-05-04 12:47 | -12.41590 | 130.87613 | 109 ft | 26 kts | 108° |
| 2026-05-04 12:47 | -12.41664 | 130.87837 | 105 ft | 40 kts | 109° |
| 2026-05-04 12:47 | -12.41763 | 130.88136 | 102 ft | 46 kts | 109° |
| 2026-05-04 12:48 | -12.41865 | 130.88437 | 102 ft | 44 kts | 110° |
| 2026-05-04 12:48 | -12.41965 | 130.88722 | 102 ft | 41 kts | 109° |
| 2026-05-04 12:48 | -12.42054 | 130.88993 | 100 ft | 39 kts | 108° |
| 2026-05-04 12:48 | -12.42129 | 130.89222 | 98 ft | 22 kts | 108° |
| 2026-05-04 12:49 | -12.42104 | 130.89368 | 96 ft | 21 kts | 40° |
| 2026-05-04 12:49 | -12.41978 | 130.89402 | 99 ft | 18 kts | 11° |
| 2026-05-04 12:49 | -12.41895 | 130.89360 | 102 ft | 10 kts | 290° |
| 2026-05-04 12:49 | -12.41868 | 130.89278 | 102 ft | 16 kts | 289° |
| 2026-05-04 12:50 | -12.41771 | 130.88987 | 103 ft | 82 kts | 289° |
| 2026-05-04 12:50 | -12.41498 | 130.88180 | 102 ft | 156 kts | 289° |
| 2026-05-04 12:50 | -12.41067 | 130.86945 | 268 ft | 203 kts | 290° |
| 2026-05-04 12:50 | -12.40580 | 130.85612 | 1249 ft | 195 kts | 290° |
| 2026-05-04 12:51 | -12.40104 | 130.84285 | 1986 ft | 206 kts | 287° |
| 2026-05-04 12:51 | -12.39904 | 130.82772 | 2548 ft | 222 kts | 267° |
| 2026-05-04 12:51 | -12.40243 | 130.81248 | 3409 ft | 219 kts | 241° |
| 2026-05-04 12:51 | -12.41129 | 130.80008 | 4200 ft | 219 kts | 218° |
| 2026-05-04 12:52 | -12.42445 | 130.79117 | 4694 ft | 236 kts | 202° |
| 2026-05-04 12:52 | -12.43981 | 130.78360 | 5379 ft | 252 kts | 200° |
| 2026-05-04 12:52 | -12.45655 | 130.77584 | 5796 ft | 277 kts | 199° |
| 2026-05-04 12:52 | -12.47455 | 130.76936 | 5603 ft | 268 kts | 185° |
| 2026-05-04 12:53 | -12.49305 | 130.76894 | 5434 ft | 263 kts | 167° |
| 2026-05-04 12:53 | -12.51016 | 130.77485 | 5294 ft | 259 kts | 148° |
| 2026-05-04 12:53 | -12.52424 | 130.78604 | 5160 ft | 256 kts | 133° |
| 2026-05-04 12:53 | -12.53405 | 130.80111 | 5030 ft | 255 kts | 118° |
| 2026-05-04 12:54 | -12.54252 | 130.81705 | 4970 ft | 254 kts | 119° |
| 2026-05-04 12:54 | -12.55170 | 130.83260 | 4966 ft | 256 kts | 122° |
| 2026-05-04 12:54 | -12.56140 | 130.84801 | 5115 ft | 259 kts | 122° |
| 2026-05-04 12:54 | -12.57110 | 130.86363 | 5848 ft | 259 kts | 122° |
| 2026-05-04 12:55 | -12.57934 | 130.87987 | 6961 ft | 260 kts | 107° |
| 2026-05-04 12:55 | -12.58389 | 130.89816 | 7854 ft | 270 kts | 106° |
| 2026-05-04 12:55 | -12.58919 | 130.91697 | 8739 ft | 280 kts | 107° |
| 2026-05-04 12:55 | -12.59463 | 130.93639 | 9620 ft | 289 kts | 106° |
| 2026-05-04 12:56 | -12.60007 | 130.95652 | 10416 ft | 297 kts | 105° |
| 2026-05-04 12:56 | -12.60565 | 130.97728 | 11151 ft | 309 kts | 105° |
| 2026-05-04 12:56 | -12.61159 | 130.99912 | 11650 ft | 329 kts | 105° |
| 2026-05-04 12:56 | -12.61793 | 131.02241 | 12106 ft | 350 kts | 105° |
| 2026-05-04 12:57 | -12.62269 | 131.04743 | 12587 ft | 366 kts | 89° |
| 2026-05-04 12:57 | -12.62031 | 131.07368 | 13312 ft | 374 kts | 82° |
| 2026-05-04 12:57 | -12.61636 | 131.09962 | 14072 ft | 381 kts | 79° |
| 2026-05-04 12:57 | -12.61180 | 131.12707 | 14832 ft | 387 kts | 81° |
| 2026-05-04 12:58 | -12.61062 | 131.15470 | 15545 ft | 393 kts | 89° |
| 2026-05-04 12:58 | -12.60985 | 131.18286 | 16283 ft | 398 kts | 87° |
| 2026-05-04 12:58 | -12.61090 | 131.21094 | 16993 ft | 403 kts | 98° |
| 2026-05-04 12:58 | -12.61550 | 131.23950 | 17666 ft | 409 kts | 99° |
| 2026-05-04 12:59 | -12.62044 | 131.26837 | 18355 ft | 414 kts | 99° |
| 2026-05-04 12:59 | -12.62544 | 131.29763 | 18943 ft | 419 kts | 99° |
| 2026-05-04 12:59 | -12.63032 | 131.32725 | 19530 ft | 424 kts | 99° |
| 2026-05-04 12:59 | -12.63523 | 131.35719 | 20117 ft | 429 kts | 99° |
| 2026-05-04 13:00 | -12.64027 | 131.38745 | 20693 ft | 434 kts | 99° |
| 2026-05-04 13:00 | -12.64540 | 131.41809 | 21260 ft | 439 kts | 99° |
| 2026-05-04 13:00 | -12.65053 | 131.44902 | 21825 ft | 443 kts | 99° |
| 2026-05-04 13:00 | -12.65570 | 131.48034 | 22374 ft | 448 kts | 99° |
| 2026-05-04 13:01 | -12.66094 | 131.51195 | 22909 ft | 453 kts | 99° |
| 2026-05-04 13:01 | -12.66623 | 131.54386 | 23437 ft | 457 kts | 99° |
| 2026-05-04 13:01 | -12.67157 | 131.57613 | 23880 ft | 461 kts | 99° |
| 2026-05-04 13:01 | -12.67694 | 131.60865 | 24310 ft | 465 kts | 99° |
| 2026-05-04 13:02 | -12.68235 | 131.64141 | 24750 ft | 469 kts | 99° |
| 2026-05-04 13:02 | -12.68782 | 131.67450 | 25176 ft | 472 kts | 99° |
| 2026-05-04 13:02 | -12.69331 | 131.70780 | 25604 ft | 476 kts | 99° |
| 2026-05-04 13:02 | -12.69883 | 131.74133 | 26029 ft | 480 kts | 99° |
| 2026-05-04 13:03 | -12.70440 | 131.77512 | 26451 ft | 483 kts | 99° |
| 2026-05-04 13:03 | -12.71000 | 131.80918 | 26892 ft | 486 kts | 100° |
| 2026-05-04 13:03 | -12.71563 | 131.84344 | 27329 ft | 490 kts | 100° |
| 2026-05-04 13:03 | -12.72131 | 131.87797 | 27747 ft | 493 kts | 100° |
| 2026-05-04 13:04 | -12.72701 | 131.91273 | 28173 ft | 497 kts | 100° |
| 2026-05-04 13:04 | -12.73275 | 131.94772 | 28589 ft | 500 kts | 100° |
| 2026-05-04 13:04 | -12.73864 | 131.98295 | 29005 ft | 503 kts | 103° |
| 2026-05-04 13:04 | -12.74902 | 132.01711 | 29441 ft | 503 kts | 116° |
| 2026-05-04 13:05 | -12.76535 | 132.04878 | 29846 ft | 503 kts | 123° |
| 2026-05-04 13:05 | -12.78297 | 132.07956 | 30211 ft | 506 kts | 123° |
| 2026-05-04 13:05 | -12.80123 | 132.11085 | 30558 ft | 509 kts | 123° |
| 2026-05-04 13:05 | -12.81922 | 132.14177 | 30897 ft | 512 kts | 123° |
| 2026-05-04 13:06 | -12.83744 | 132.17346 | 31250 ft | 515 kts | 123° |
| 2026-05-04 13:06 | -12.85572 | 132.20529 | 31593 ft | 517 kts | 123° |
| 2026-05-04 13:06 | -12.87391 | 132.23676 | 31930 ft | 519 kts | 123° |
| 2026-05-04 13:06 | -12.89241 | 132.26873 | 32265 ft | 521 kts | 123° |
| 2026-05-04 13:07 | -12.91094 | 132.30089 | 32583 ft | 523 kts | 123° |
| 2026-05-04 13:07 | -12.92933 | 132.33286 | 32911 ft | 525 kts | 123° |
| 2026-05-04 13:07 | -12.94802 | 132.36530 | 33238 ft | 527 kts | 123° |
| 2026-05-04 13:07 | -12.96659 | 132.39750 | 33559 ft | 529 kts | 123° |
| 2026-05-04 13:08 | -12.98544 | 132.43024 | 33861 ft | 531 kts | 123° |
| 2026-05-04 13:08 | -12.99782 | 132.45178 | 34135 ft | 530 kts | 123° |
| 2026-05-04 13:08 | -13.02277 | 132.49518 | 34698 ft | 528 kts | 123° |
| 2026-05-04 13:08 | -13.04155 | 132.52781 | 35083 ft | 527 kts | 123° |
| 2026-05-04 13:09 | -13.06000 | 132.55989 | 35455 ft | 526 kts | 123° |
| 2026-05-04 13:09 | -13.07864 | 132.59233 | 35839 ft | 525 kts | 123° |
| 2026-05-04 13:09 | -13.09096 | 132.61379 | 36087 ft | 525 kts | 122° |
| 2026-05-04 13:09 | -13.11561 | 132.65672 | 36593 ft | 524 kts | 122° |
| 2026-05-04 13:10 | -13.12791 | 132.67814 | 36845 ft | 523 kts | 122° |
| 2026-05-04 13:10 | -13.14647 | 132.71046 | 36981 ft | 523 kts | 122° |
| 2026-05-04 13:10 | -13.16463 | 132.74215 | 36974 ft | 517 kts | 122° |
| 2026-05-04 13:11 | -13.20128 | 132.80605 | 36987 ft | 518 kts | 122° |
| 2026-05-04 13:11 | -13.23770 | 132.86962 | 36990 ft | 518 kts | 122° |
| 2026-05-04 13:12 | -13.27426 | 132.93348 | 36993 ft | 518 kts | 122° |
| 2026-05-04 13:12 | -13.31072 | 132.99720 | 36997 ft | 518 kts | 122° |
| 2026-05-04 13:13 | -13.34716 | 133.06094 | 37002 ft | 518 kts | 122° |
| 2026-05-04 13:13 | -13.38361 | 133.12475 | 37005 ft | 518 kts | 122° |
| 2026-05-04 13:14 | -13.41999 | 133.18848 | 37005 ft | 518 kts | 122° |
| 2026-05-04 13:14 | -13.45651 | 133.25251 | 37011 ft | 518 kts | 122° |
| 2026-05-04 13:15 | -13.49287 | 133.31631 | 37011 ft | 519 kts | 122° |
| 2026-05-04 13:15 | -13.52926 | 133.38020 | 37015 ft | 519 kts | 122° |
| 2026-05-04 13:16 | -13.56562 | 133.44410 | 37014 ft | 519 kts | 122° |
| 2026-05-04 13:16 | -13.60229 | 133.50859 | 37019 ft | 520 kts | 122° |
| 2026-05-04 13:17 | -13.63874 | 133.57272 | 37020 ft | 520 kts | 122° |
| 2026-05-04 13:17 | -13.67504 | 133.63667 | 37022 ft | 520 kts | 122° |
| 2026-05-04 13:18 | -13.71144 | 133.70083 | 37020 ft | 520 kts | 122° |
| 2026-05-04 13:18 | -13.74784 | 133.76503 | 37023 ft | 520 kts | 122° |
| 2026-05-04 13:19 | -13.78447 | 133.82969 | 37022 ft | 521 kts | 122° |
| 2026-05-04 13:19 | -13.82081 | 133.89389 | 37021 ft | 521 kts | 122° |
| 2026-05-04 13:20 | -13.85720 | 133.95823 | 37022 ft | 521 kts | 122° |
| 2026-05-04 13:20 | -13.89377 | 134.02294 | 37021 ft | 521 kts | 122° |
| 2026-05-04 13:21 | -13.93014 | 134.08735 | 37022 ft | 521 kts | 121° |
| 2026-05-04 13:21 | -13.96653 | 134.15184 | 37022 ft | 521 kts | 121° |
| 2026-05-04 13:22 | -14.00286 | 134.21625 | 37023 ft | 521 kts | 121° |
| 2026-05-04 13:22 | -14.03917 | 134.28071 | 37022 ft | 522 kts | 121° |
| 2026-05-04 13:23 | -14.07553 | 134.34530 | 37021 ft | 522 kts | 121° |
| 2026-05-04 13:23 | -14.11188 | 134.40991 | 37021 ft | 522 kts | 121° |
| 2026-05-04 13:24 | -14.14818 | 134.47450 | 37025 ft | 522 kts | 121° |
| 2026-05-04 13:24 | -14.18452 | 134.53920 | 37024 ft | 522 kts | 121° |
| 2026-05-04 13:25 | -14.23904 | 134.63638 | 37025 ft | 522 kts | 121° |
| 2026-05-04 13:25 | -14.27559 | 134.70159 | 37023 ft | 523 kts | 121° |
| 2026-05-04 13:26 | -14.31186 | 134.76636 | 37026 ft | 523 kts | 121° |
| 2026-05-04 13:26 | -14.34820 | 134.83130 | 37019 ft | 523 kts | 121° |
| 2026-05-04 13:27 | -14.38448 | 134.89619 | 37021 ft | 524 kts | 121° |
| 2026-05-04 13:27 | -14.42103 | 134.96160 | 37024 ft | 524 kts | 121° |
| 2026-05-04 13:28 | -14.45735 | 135.02666 | 37021 ft | 524 kts | 121° |
| 2026-05-04 13:28 | -14.49363 | 135.09170 | 37018 ft | 524 kts | 121° |
| 2026-05-04 13:29 | -14.52990 | 135.15679 | 37021 ft | 525 kts | 121° |
| 2026-05-04 13:29 | -14.56641 | 135.22236 | 37016 ft | 525 kts | 121° |
| 2026-05-04 13:30 | -14.60274 | 135.28764 | 37017 ft | 526 kts | 121° |
| 2026-05-04 13:30 | -14.63915 | 135.35314 | 37019 ft | 526 kts | 121° |
| 2026-05-04 13:31 | -14.67550 | 135.41859 | 37017 ft | 526 kts | 121° |
| 2026-05-04 13:31 | -14.71189 | 135.48416 | 37017 ft | 527 kts | 121° |
| 2026-05-04 13:32 | -14.74849 | 135.55016 | 37017 ft | 527 kts | 121° |
| 2026-05-04 13:32 | -14.78479 | 135.61568 | 37020 ft | 527 kts | 121° |
| 2026-05-04 13:33 | -14.82137 | 135.68176 | 37020 ft | 528 kts | 121° |
| 2026-05-04 13:33 | -14.85780 | 135.74761 | 37014 ft | 528 kts | 121° |
| 2026-05-04 13:34 | -14.89409 | 135.81328 | 37017 ft | 529 kts | 121° |
| 2026-05-04 13:34 | -14.93049 | 135.87919 | 37019 ft | 529 kts | 121° |
| 2026-05-04 13:35 | -14.98534 | 135.97864 | 37017 ft | 531 kts | 120° |
| 2026-05-04 13:36 | -15.02185 | 136.04489 | 37019 ft | 531 kts | 120° |
| 2026-05-04 13:36 | -15.05842 | 136.11133 | 37018 ft | 532 kts | 120° |
| 2026-05-04 13:37 | -15.09516 | 136.17812 | 37018 ft | 533 kts | 120° |
| 2026-05-04 13:37 | -15.13169 | 136.24461 | 37016 ft | 534 kts | 120° |
| 2026-05-04 13:38 | -15.16834 | 136.31135 | 37021 ft | 535 kts | 120° |
| 2026-05-04 13:38 | -15.20521 | 136.37857 | 37017 ft | 535 kts | 120° |
| 2026-05-04 13:39 | -15.24189 | 136.44549 | 37016 ft | 536 kts | 120° |
| 2026-05-04 13:39 | -15.27890 | 136.51307 | 37015 ft | 537 kts | 120° |
| 2026-05-04 13:40 | -15.31565 | 136.58024 | 37018 ft | 538 kts | 120° |
| 2026-05-04 13:40 | -15.35238 | 136.64743 | 37018 ft | 538 kts | 120° |
| 2026-05-04 13:41 | -15.38942 | 136.71526 | 37019 ft | 538 kts | 120° |
| 2026-05-04 13:41 | -15.42623 | 136.78276 | 37016 ft | 538 kts | 120° |
| 2026-05-04 13:42 | -15.48137 | 136.88395 | 37018 ft | 540 kts | 120° |
| 2026-05-04 13:42 | -15.51831 | 136.95183 | 37015 ft | 541 kts | 120° |
| 2026-05-04 13:43 | -15.55522 | 137.01972 | 37018 ft | 542 kts | 120° |
| 2026-05-04 13:43 | -15.59229 | 137.08794 | 37018 ft | 543 kts | 120° |
| 2026-05-04 13:44 | -15.62934 | 137.15623 | 37012 ft | 543 kts | 120° |
| 2026-05-04 13:44 | -15.66640 | 137.22456 | 37016 ft | 544 kts | 119° |
| 2026-05-04 13:45 | -15.70350 | 137.29305 | 37019 ft | 544 kts | 119° |
| 2026-05-04 13:45 | -15.74059 | 137.36159 | 37014 ft | 545 kts | 119° |
| 2026-05-04 13:46 | -15.77770 | 137.43023 | 37016 ft | 545 kts | 119° |
| 2026-05-04 13:46 | -15.81483 | 137.49895 | 37021 ft | 546 kts | 119° |
| 2026-05-04 13:47 | -15.85194 | 137.56771 | 37020 ft | 546 kts | 119° |
| 2026-05-04 13:47 | -15.88909 | 137.63663 | 37014 ft | 547 kts | 119° |
| 2026-05-04 13:48 | -15.92627 | 137.70565 | 37021 ft | 548 kts | 119° |
| 2026-05-04 13:48 | -15.96345 | 137.77473 | 37017 ft | 548 kts | 119° |
| 2026-05-04 13:49 | -16.00062 | 137.84388 | 37017 ft | 548 kts | 119° |
| 2026-05-04 13:49 | -16.03752 | 137.91259 | 37018 ft | 548 kts | 119° |
| 2026-05-04 13:50 | -16.07494 | 137.98233 | 37003 ft | 549 kts | 118° |
| 2026-05-04 13:50 | -16.11185 | 138.05118 | 37006 ft | 549 kts | 118° |
| 2026-05-04 13:51 | -16.14918 | 138.12088 | 37015 ft | 549 kts | 118° |
| 2026-05-04 13:51 | -16.18629 | 138.19025 | 37011 ft | 550 kts | 118° |
| 2026-05-04 13:52 | -16.24204 | 138.29459 | 37023 ft | 551 kts | 118° |
| 2026-05-04 13:53 | -16.27925 | 138.36431 | 37020 ft | 552 kts | 118° |
| 2026-05-04 13:53 | -16.31647 | 138.43412 | 37022 ft | 552 kts | 118° |
| 2026-05-04 13:54 | -16.37223 | 138.53885 | 37027 ft | 552 kts | 118° |
| 2026-05-04 13:55 | -16.42808 | 138.64389 | 37027 ft | 553 kts | 118° |
| 2026-05-04 13:55 | -16.48393 | 138.74910 | 37028 ft | 553 kts | 118° |
| 2026-05-04 13:56 | -16.52104 | 138.81908 | 37023 ft | 553 kts | 118° |
| 2026-05-04 13:57 | -16.57045 | 138.91238 | 37024 ft | 553 kts | 118° |
| 2026-05-04 13:58 | -16.64482 | 139.05306 | 37025 ft | 553 kts | 118° |
| 2026-05-04 13:58 | -16.70056 | 139.15868 | 37021 ft | 553 kts | 118° |
| 2026-05-04 13:59 | -16.73755 | 139.22886 | 37023 ft | 553 kts | 118° |
| 2026-05-04 14:00 | -16.79317 | 139.33452 | 37023 ft | 554 kts | 118° |
| 2026-05-04 14:00 | -16.84868 | 139.44013 | 37018 ft | 554 kts | 118° |
| 2026-05-04 14:01 | -16.88560 | 139.51047 | 37020 ft | 553 kts | 118° |
| 2026-05-04 14:02 | -16.94085 | 139.61587 | 37020 ft | 554 kts | 118° |
| 2026-05-04 14:02 | -16.97799 | 139.68683 | 37020 ft | 555 kts | 118° |
| 2026-05-04 14:03 | -17.01497 | 139.75753 | 37023 ft | 555 kts | 118° |
| 2026-05-04 14:03 | -17.05193 | 139.82828 | 37016 ft | 555 kts | 118° |
| 2026-05-04 14:04 | -17.10740 | 139.93460 | 37020 ft | 555 kts | 118° |
| 2026-05-04 14:04 | -17.14429 | 140.00541 | 37021 ft | 556 kts | 117° |
| 2026-05-04 14:05 | -17.19979 | 140.11206 | 37012 ft | 556 kts | 117° |
| 2026-05-04 14:06 | -17.23665 | 140.18300 | 37011 ft | 556 kts | 117° |
| 2026-05-04 14:06 | -17.27351 | 140.25402 | 37014 ft | 557 kts | 117° |
| 2026-05-04 14:07 | -17.31044 | 140.32523 | 37017 ft | 557 kts | 117° |
| 2026-05-04 14:07 | -17.34752 | 140.39683 | 37022 ft | 557 kts | 117° |
| 2026-05-04 14:08 | -17.38431 | 140.46794 | 37017 ft | 557 kts | 117° |
| 2026-05-04 14:08 | -17.42116 | 140.53924 | 37019 ft | 558 kts | 117° |
| 2026-05-04 14:09 | -17.47650 | 140.64646 | 37017 ft | 558 kts | 117° |
| 2026-05-04 14:10 | -17.53185 | 140.75387 | 37015 ft | 558 kts | 117° |
| 2026-05-04 14:10 | -17.56870 | 140.82549 | 37016 ft | 558 kts | 117° |
| 2026-05-04 14:11 | -17.60553 | 140.89714 | 37014 ft | 559 kts | 117° |
| 2026-05-04 14:11 | -17.66076 | 141.00476 | 37013 ft | 559 kts | 117° |
| 2026-05-04 14:12 | -17.69625 | 141.07728 | 37034 ft | 557 kts | 107° |
| 2026-05-04 14:13 | -17.73071 | 141.19367 | 37015 ft | 557 kts | 104° |
| 2026-05-04 14:13 | -17.75328 | 141.27134 | 37022 ft | 557 kts | 104° |
| 2026-05-04 14:14 | -17.77562 | 141.34866 | 37011 ft | 557 kts | 104° |
| 2026-05-04 14:14 | -17.80932 | 141.46538 | 37015 ft | 557 kts | 104° |
| 2026-05-04 14:15 | -17.85411 | 141.62109 | 37013 ft | 557 kts | 104° |
| 2026-05-04 14:16 | -17.88760 | 141.73785 | 37016 ft | 557 kts | 104° |
| 2026-05-04 14:17 | -17.92104 | 141.85465 | 37010 ft | 557 kts | 104° |
| 2026-05-04 14:18 | -17.95440 | 141.97148 | 37003 ft | 556 kts | 104° |
| 2026-05-04 14:19 | -17.99872 | 142.12716 | 37007 ft | 556 kts | 104° |
| 2026-05-04 14:19 | -18.02080 | 142.20492 | 37007 ft | 556 kts | 104° |
| 2026-05-04 14:20 | -18.04287 | 142.28276 | 37014 ft | 556 kts | 104° |
| 2026-05-04 14:20 | -18.06490 | 142.36057 | 37018 ft | 556 kts | 104° |
| 2026-05-04 14:21 | -18.09787 | 142.47730 | 37027 ft | 556 kts | 104° |
| 2026-05-04 14:21 | -18.11981 | 142.55515 | 37015 ft | 555 kts | 104° |
| 2026-05-04 14:22 | -18.14173 | 142.63303 | 37024 ft | 555 kts | 104° |
| 2026-05-04 14:22 | -18.16361 | 142.71092 | 37025 ft | 555 kts | 104° |
| 2026-05-04 14:23 | -18.19637 | 142.82779 | 37022 ft | 555 kts | 104° |
| 2026-05-04 14:24 | -18.21817 | 142.90571 | 37021 ft | 556 kts | 104° |
| 2026-05-04 14:24 | -18.23995 | 142.98370 | 37027 ft | 556 kts | 104° |
| 2026-05-04 14:25 | -18.26156 | 143.06122 | 37037 ft | 556 kts | 104° |
| 2026-05-04 14:25 | -18.29410 | 143.17819 | 37035 ft | 555 kts | 104° |
| 2026-05-04 14:26 | -18.31575 | 143.25616 | 37034 ft | 555 kts | 103° |
| 2026-05-04 14:26 | -18.33727 | 143.33417 | 37029 ft | 554 kts | 103° |
| 2026-05-04 14:27 | -18.35871 | 143.41215 | 37037 ft | 554 kts | 103° |
| 2026-05-04 14:27 | -18.38011 | 143.49001 | 37048 ft | 554 kts | 103° |
| 2026-05-04 14:28 | -18.40146 | 143.56792 | 37035 ft | 553 kts | 103° |
| 2026-05-04 14:28 | -18.42276 | 143.64569 | 37043 ft | 553 kts | 103° |
| 2026-05-04 14:29 | -18.46523 | 143.80126 | 37060 ft | 552 kts | 103° |
| 2026-05-04 14:30 | -18.48641 | 143.87905 | 37061 ft | 552 kts | 103° |
| 2026-05-04 14:31 | -18.51811 | 143.99573 | 37065 ft | 553 kts | 103° |
| 2026-05-04 14:32 | -18.56033 | 144.15160 | 37085 ft | 553 kts | 103° |
| 2026-05-04 14:32 | -18.58127 | 144.22911 | 37084 ft | 554 kts | 103° |
| 2026-05-04 14:33 | -18.60232 | 144.30717 | 37073 ft | 554 kts | 103° |
| 2026-05-04 14:33 | -18.62335 | 144.38528 | 37081 ft | 554 kts | 103° |
| 2026-05-04 14:34 | -18.64434 | 144.46338 | 37081 ft | 554 kts | 103° |
| 2026-05-04 14:34 | -18.66529 | 144.54147 | 37088 ft | 554 kts | 103° |
| 2026-05-04 14:35 | -18.68622 | 144.61964 | 37091 ft | 554 kts | 103° |
| 2026-05-04 14:35 | -18.70712 | 144.69784 | 37088 ft | 554 kts | 103° |
| 2026-05-04 14:36 | -18.72797 | 144.77601 | 37096 ft | 554 kts | 103° |
| 2026-05-04 14:36 | -18.74881 | 144.85425 | 37085 ft | 554 kts | 103° |
| 2026-05-04 14:37 | -18.76950 | 144.93206 | 37100 ft | 554 kts | 103° |
| 2026-05-04 14:37 | -18.79029 | 145.01043 | 37093 ft | 555 kts | 103° |
| 2026-05-04 14:38 | -18.81106 | 145.08883 | 37086 ft | 555 kts | 103° |
| 2026-05-04 14:38 | -18.83180 | 145.16728 | 37089 ft | 555 kts | 103° |
| 2026-05-04 14:39 | -18.85253 | 145.24582 | 37087 ft | 555 kts | 103° |
| 2026-05-04 14:39 | -18.87323 | 145.32440 | 37082 ft | 555 kts | 103° |
| 2026-05-04 14:40 | -18.90420 | 145.44224 | 37081 ft | 555 kts | 103° |
| 2026-05-04 14:40 | -18.92481 | 145.52085 | 37083 ft | 555 kts | 103° |
| 2026-05-04 14:41 | -18.94539 | 145.59946 | 37090 ft | 555 kts | 103° |
| 2026-05-04 14:42 | -18.98645 | 145.75678 | 37082 ft | 555 kts | 103° |
| 2026-05-04 14:42 | -19.00693 | 145.83546 | 37081 ft | 555 kts | 103° |
| 2026-05-04 14:43 | -19.02737 | 145.91414 | 37089 ft | 555 kts | 103° |
| 2026-05-04 14:43 | -19.04778 | 145.99285 | 37084 ft | 556 kts | 103° |
| 2026-05-04 14:44 | -19.06473 | 146.05833 | 37080 ft | 556 kts | 103° |
| 2026-05-04 14:44 | -19.08511 | 146.13720 | 37089 ft | 556 kts | 103° |
| 2026-05-04 14:45 | -19.10545 | 146.21606 | 37083 ft | 556 kts | 103° |
| 2026-05-04 14:45 | -19.12577 | 146.29501 | 37082 ft | 556 kts | 103° |
| 2026-05-04 14:46 | -19.14606 | 146.37398 | 37070 ft | 556 kts | 103° |
| 2026-05-04 14:46 | -19.16632 | 146.45296 | 37062 ft | 557 kts | 103° |
| 2026-05-04 14:47 | -19.18641 | 146.53145 | 37059 ft | 556 kts | 103° |
| 2026-05-04 14:47 | -19.20659 | 146.61046 | 37055 ft | 556 kts | 103° |
| 2026-05-04 14:48 | -19.22705 | 146.68945 | 37058 ft | 557 kts | 108° |
| 2026-05-04 14:48 | -19.24246 | 146.72713 | 37075 ft | 558 kts | 121° |
| 2026-05-04 14:48 | -19.26400 | 146.76149 | 37087 ft | 558 kts | 131° |
| 2026-05-04 14:49 | -19.29041 | 146.79087 | 37083 ft | 555 kts | 143° |
| 2026-05-04 14:49 | -19.32105 | 146.81569 | 37065 ft | 552 kts | 147° |
| 2026-05-04 14:49 | -19.38337 | 146.86272 | 37064 ft | 552 kts | 148° |
| 2026-05-04 14:50 | -19.44636 | 146.90991 | 37046 ft | 553 kts | 148° |
| 2026-05-04 14:50 | -19.50863 | 146.95697 | 37070 ft | 552 kts | 148° |
| 2026-05-04 14:51 | -19.57115 | 147.00397 | 36610 ft | 550 kts | 148° |
| 2026-05-04 14:51 | -19.60232 | 147.02755 | 35966 ft | 550 kts | 148° |
| 2026-05-04 14:51 | -19.63348 | 147.05107 | 35334 ft | 550 kts | 148° |
| 2026-05-04 14:52 | -19.66470 | 147.07461 | 34706 ft | 550 kts | 148° |
| 2026-05-04 14:52 | -19.69590 | 147.09817 | 34021 ft | 551 kts | 148° |
| 2026-05-04 14:52 | -19.72718 | 147.12181 | 33238 ft | 552 kts | 148° |
| 2026-05-04 14:52 | -19.75847 | 147.14556 | 32431 ft | 553 kts | 145° |
| 2026-05-04 14:53 | -19.78725 | 147.17282 | 31785 ft | 554 kts | 134° |
| 2026-05-04 14:53 | -19.81112 | 147.20478 | 31276 ft | 550 kts | 122° |
| 2026-05-04 14:53 | -19.82928 | 147.24029 | 30775 ft | 544 kts | 112° |
| 2026-05-04 14:53 | -19.84148 | 147.27800 | 30271 ft | 537 kts | 104° |
| 2026-05-04 14:54 | -19.85150 | 147.31601 | 29701 ft | 533 kts | 103° |
| 2026-05-04 14:54 | -19.86108 | 147.35382 | 29133 ft | 528 kts | 103° |
| 2026-05-04 14:54 | -19.87040 | 147.39136 | 28591 ft | 523 kts | 103° |
| 2026-05-04 14:54 | -19.87981 | 147.42848 | 28052 ft | 518 kts | 103° |
| 2026-05-04 14:55 | -19.88927 | 147.46521 | 27522 ft | 513 kts | 103° |
| 2026-05-04 14:55 | -19.89855 | 147.50167 | 26997 ft | 508 kts | 103° |
| 2026-05-04 14:55 | -19.90762 | 147.53779 | 26481 ft | 504 kts | 103° |
| 2026-05-04 14:55 | -19.91666 | 147.57359 | 25976 ft | 499 kts | 103° |
| 2026-05-04 14:56 | -19.92565 | 147.60900 | 25469 ft | 495 kts | 103° |
| 2026-05-04 14:56 | -19.93456 | 147.64418 | 24967 ft | 490 kts | 103° |
| 2026-05-04 14:56 | -19.94334 | 147.67902 | 24481 ft | 486 kts | 103° |
| 2026-05-04 14:56 | -19.95198 | 147.71334 | 23992 ft | 482 kts | 103° |
| 2026-05-04 14:57 | -19.96066 | 147.74778 | 23488 ft | 477 kts | 103° |
| 2026-05-04 14:57 | -19.96913 | 147.78136 | 22932 ft | 473 kts | 103° |
| 2026-05-04 14:57 | -19.97763 | 147.81516 | 22372 ft | 468 kts | 103° |
| 2026-05-04 14:57 | -19.98592 | 147.84816 | 21832 ft | 464 kts | 103° |
| 2026-05-04 14:58 | -19.99424 | 147.88127 | 21287 ft | 460 kts | 103° |
| 2026-05-04 14:58 | -20.00245 | 147.91399 | 20755 ft | 455 kts | 103° |
| 2026-05-04 14:58 | -20.01056 | 147.94635 | 20227 ft | 451 kts | 103° |
| 2026-05-04 14:58 | -20.01860 | 147.97842 | 19710 ft | 447 kts | 103° |
| 2026-05-04 14:59 | -20.02655 | 148.01021 | 19197 ft | 443 kts | 103° |
| 2026-05-04 14:59 | -20.03441 | 148.04164 | 18691 ft | 439 kts | 103° |
| 2026-05-04 14:59 | -20.05071 | 148.10364 | 17598 ft | 431 kts | 104° |
| 2026-05-04 15:00 | -20.05907 | 148.13409 | 17035 ft | 427 kts | 104° |
| 2026-05-04 15:00 | -20.06737 | 148.16425 | 16484 ft | 422 kts | 105° |
| 2026-05-04 15:00 | -20.07553 | 148.19408 | 15942 ft | 418 kts | 105° |
| 2026-05-04 15:01 | -20.09149 | 148.25290 | 14879 ft | 410 kts | 105° |
| 2026-05-04 15:01 | -20.09927 | 148.28186 | 14342 ft | 406 kts | 105° |
| 2026-05-04 15:01 | -20.10694 | 148.31056 | 13824 ft | 402 kts | 105° |
| 2026-05-04 15:01 | -20.11449 | 148.33903 | 13249 ft | 397 kts | 105° |
| 2026-05-04 15:02 | -20.12190 | 148.36715 | 12699 ft | 392 kts | 105° |
| 2026-05-04 15:02 | -20.12921 | 148.39491 | 12157 ft | 387 kts | 105° |
| 2026-05-04 15:02 | -20.13642 | 148.42235 | 11617 ft | 382 kts | 105° |
| 2026-05-04 15:02 | -20.14353 | 148.44939 | 11090 ft | 377 kts | 105° |
| 2026-05-04 15:03 | -20.15055 | 148.47611 | 10562 ft | 372 kts | 105° |
| 2026-05-04 15:03 | -20.15749 | 148.50247 | 10051 ft | 368 kts | 105° |
| 2026-05-04 15:03 | -20.16432 | 148.52844 | 9513 ft | 362 kts | 105° |
| 2026-05-04 15:03 | -20.17090 | 148.55376 | 8974 ft | 356 kts | 105° |
| 2026-05-04 15:04 | -20.17733 | 148.57936 | 8386 ft | 352 kts | 105° |
| 2026-05-04 15:04 | -20.18334 | 148.60409 | 7832 ft | 347 kts | 105° |
| 2026-05-04 15:04 | -20.18914 | 148.62887 | 7292 ft | 342 kts | 105° |
| 2026-05-04 15:04 | -20.19466 | 148.65336 | 6825 ft | 336 kts | 105° |
| 2026-05-04 15:05 | -20.19982 | 148.67709 | 6617 ft | 321 kts | 105° |
| 2026-05-04 15:05 | -20.20456 | 148.69965 | 6516 ft | 304 kts | 105° |
| 2026-05-04 15:05 | -20.20893 | 148.72099 | 6437 ft | 287 kts | 105° |
| 2026-05-04 15:05 | -20.21298 | 148.74119 | 6359 ft | 271 kts | 105° |
| 2026-05-04 15:06 | -20.21677 | 148.76038 | 6185 ft | 261 kts | 105° |
| 2026-05-04 15:06 | -20.22045 | 148.77908 | 5876 ft | 256 kts | 105° |
| 2026-05-04 15:06 | -20.22410 | 148.79750 | 5532 ft | 253 kts | 104° |
| 2026-05-04 15:07 | -20.21257 | 148.83090 | 4868 ft | 265 kts | 35° |
| 2026-05-04 15:07 | -20.19493 | 148.83620 | 4516 ft | 271 kts | 359° |
| 2026-05-04 15:07 | -20.17675 | 148.83084 | 4130 ft | 274 kts | 338° |
| 2026-05-04 15:07 | -20.15972 | 148.82175 | 3750 ft | 274 kts | 333° |
| 2026-05-04 15:08 | -20.14304 | 148.81201 | 3377 ft | 273 kts | 332° |
| 2026-05-04 15:08 | -20.12653 | 148.80213 | 3050 ft | 270 kts | 332° |
| 2026-05-04 15:08 | -20.11022 | 148.79224 | 3002 ft | 265 kts | 332° |
| 2026-05-04 15:08 | -20.09465 | 148.78281 | 2992 ft | 252 kts | 332° |
| 2026-05-04 15:09 | -20.07938 | 148.77350 | 2985 ft | 251 kts | 332° |
| 2026-05-04 15:09 | -20.06421 | 148.76420 | 2995 ft | 251 kts | 332° |
| 2026-05-04 15:09 | -20.04915 | 148.75501 | 3011 ft | 249 kts | 332° |
| 2026-05-04 15:10 | -20.02531 | 148.73439 | 2948 ft | 209 kts | 288° |
| 2026-05-04 15:10 | -20.02577 | 148.71938 | 2786 ft | 202 kts | 243° |
| 2026-05-04 15:10 | -20.04438 | 148.69905 | 2397 ft | 192 kts | 215° |
| 2026-05-04 15:11 | -20.05428 | 148.68976 | 2236 ft | 188 kts | 216° |
| 2026-05-04 15:11 | -20.06429 | 148.68064 | 2064 ft | 188 kts | 213° |
| 2026-05-04 15:11 | -20.07615 | 148.67584 | 1822 ft | 180 kts | 186° |
| 2026-05-04 15:11 | -20.08853 | 148.67386 | 1656 ft | 180 kts | 185° |
| 2026-05-04 15:12 | -20.10073 | 148.67183 | 1599 ft | 177 kts | 185° |
| 2026-05-04 15:12 | -20.11314 | 148.66979 | 1598 ft | 174 kts | 185° |
| 2026-05-04 15:12 | -20.12455 | 148.66790 | 1579 ft | 162 kts | 185° |
| 2026-05-04 15:12 | -20.13527 | 148.66826 | 1560 ft | 153 kts | 163° |
| 2026-05-04 15:13 | -20.14480 | 148.67306 | 1582 ft | 149 kts | 150° |
| 2026-05-04 15:13 | -20.15424 | 148.67828 | 1589 ft | 149 kts | 150° |
| 2026-05-04 15:13 | -20.16344 | 148.68336 | 1596 ft | 148 kts | 150° |
| 2026-05-04 15:13 | -20.17264 | 148.68840 | 1599 ft | 150 kts | 150° |
| 2026-05-04 15:14 | -20.18180 | 148.69349 | 1602 ft | 151 kts | 150° |
| 2026-05-04 15:14 | -20.19100 | 148.69888 | 1603 ft | 150 kts | 148° |
| 2026-05-04 15:14 | -20.19993 | 148.70438 | 1599 ft | 155 kts | 148° |
| 2026-05-04 15:14 | -20.20900 | 148.70989 | 1600 ft | 153 kts | 148° |
| 2026-05-04 15:15 | -20.21810 | 148.71542 | 1586 ft | 143 kts | 148° |
| 2026-05-04 15:15 | -20.22712 | 148.72095 | 1601 ft | 147 kts | 148° |
| 2026-05-04 15:15 | -20.23619 | 148.72646 | 1608 ft | 155 kts | 148° |
| 2026-05-04 15:16 | -20.25437 | 148.73759 | 1604 ft | 149 kts | 147° |
| 2026-05-04 15:16 | -20.26358 | 148.74305 | 1603 ft | 150 kts | 148° |
| 2026-05-04 15:16 | -20.28175 | 148.75448 | 1578 ft | 154 kts | 141° |
| 2026-05-04 15:17 | -20.28770 | 148.76353 | 1609 ft | 153 kts | 121° |
| 2026-05-04 15:17 | -20.29907 | 148.78509 | 1553 ft | 174 kts | 101° |
| 2026-05-04 15:17 | -20.29533 | 148.79729 | 1558 ft | 183 kts | 51° |
| 2026-05-04 15:18 | -20.28362 | 148.80248 | 1565 ft | 192 kts | 6° |
| 2026-05-04 15:18 | -20.27053 | 148.79897 | 1592 ft | 197 kts | 339° |
| 2026-05-04 15:18 | -20.25791 | 148.79281 | 1614 ft | 201 kts | 338° |
| 2026-05-04 15:19 | -20.23270 | 148.78074 | 1615 ft | 200 kts | 338° |
| 2026-05-04 15:19 | -20.22011 | 148.77470 | 1613 ft | 197 kts | 338° |
| 2026-05-04 15:19 | -20.19498 | 148.76255 | 1543 ft | 196 kts | 336° |
| 2026-05-04 15:20 | -20.18348 | 148.75601 | 1342 ft | 178 kts | 329° |
| 2026-05-04 15:20 | -20.17385 | 148.74818 | 1085 ft | 173 kts | 315° |
| 2026-05-04 15:20 | -20.16627 | 148.73851 | 983 ft | 168 kts | 302° |
| 2026-05-04 15:20 | -20.16167 | 148.72723 | 938 ft | 165 kts | 280° |
| 2026-05-04 15:21 | -20.16121 | 148.71503 | 1062 ft | 165 kts | 255° |
| 2026-05-04 15:21 | -20.16582 | 148.70376 | 1060 ft | 160 kts | 227° |
| 2026-05-04 15:21 | -20.18506 | 148.69853 | 768 ft | 148 kts | 150° |
| 2026-05-04 15:22 | -20.19314 | 148.70584 | 644 ft | 146 kts | 134° |
| 2026-05-04 15:22 | -20.20005 | 148.71401 | 636 ft | 146 kts | 130° |
| 2026-05-04 15:22 | -20.21672 | 148.72703 | 582 ft | 151 kts | 157° |
| 2026-05-04 15:23 | -20.22639 | 148.73129 | 518 ft | 155 kts | 156° |
| 2026-05-04 15:23 | -20.23587 | 148.73627 | 482 ft | 158 kts | 152° |
| 2026-05-04 15:23 | -20.24527 | 148.74141 | 477 ft | 151 kts | 156° |
| 2026-05-04 15:23 | -20.25552 | 148.74487 | 422 ft | 149 kts | 165° |
| 2026-05-04 15:24 | -20.27412 | 148.75383 | 47 ft | 110 kts | 148° |